Time;durP1;ratioP1;P1;durP2;ratioP2;P2;SDS_P1;SDS_P2;PMS_P1;PMS_P2;Temp;Humidity;BMP_temperature;BMP_pressure;BME280_temperature;BME280_humidity;BME280_pressure;Samples;Min_cycle;Max_cycle;Signal;HPM_P1;HPM_P2
2024/03/29 01:45:21;;;;;;;0.10;0.00;;;8.50;99.90;;;;;;4983400;28;20144;-86
2024/03/29 01:47:49;;;;;;;0.10;0.00;;;8.60;99.90;;;;;;5006121;28;20145;-85
2024/03/29 01:50:19;;;;;;;0.22;0.00;;;8.50;99.90;;;;;;5025537;28;20045;-85
2024/03/29 01:52:47;;;;;;;0.63;0.00;;;8.50;99.90;;;;;;5011130;28;20153;-87
2024/03/29 01:55:16;;;;;;;0.65;0.00;;;8.50;99.90;;;;;;5009166;28;20804;-85
2024/03/29 01:57:44;;;;;;;0.45;0.03;;;8.40;99.90;;;;;;5016309;28;20092;-83
2024/03/29 02:00:15;;;;;;;1.27;0.00;;;8.40;99.90;;;;;;5005265;28;20521;-86
2024/03/29 02:02:44;;;;;;;0.25;0.10;;;8.40;99.90;;;;;;5031029;28;20492;-85
2024/03/29 02:05:15;;;;;;;0.93;0.00;;;8.40;99.90;;;;;;5020615;28;20057;-86
2024/03/29 02:07:48;;;;;;;0.88;0.10;;;8.40;99.90;;;;;;5010903;28;20042;-86
2024/03/29 02:10:19;;;;;;;0.30;0.10;;;8.40;99.90;;;;;;5025558;28;20149;-85
2024/03/29 02:12:58;;;;;;;0.22;0.00;;;8.40;99.90;;;;;;5026286;28;20053;-89
2024/03/29 02:15:39;;;;;;;0.85;0.00;;;8.40;99.90;;;;;;5025740;28;20137;-86
2024/03/29 02:18:10;;;;;;;0.05;0.00;;;8.40;99.90;;;;;;5012242;28;20049;-88
2024/03/29 02:21:05;;;;;;;0.45;0.00;;;8.30;99.90;;;;;;5007679;28;20045;-87
2024/03/29 02:23:54;;;;;;;1.63;0.10;;;8.40;99.90;;;;;;5027507;28;20108;-86
2024/03/29 02:26:53;;;;;;;0.57;0.00;;;8.40;99.90;;;;;;5046493;28;20072;-86
2024/03/29 02:33:14;;;;;;;0.05;0.00;;;8.40;99.90;;;;;;5042877;28;20052;-87
2024/03/29 02:35:50;;;;;;;2.10;0.10;;;8.30;99.90;;;;;;5019548;28;20073;-85
2024/03/29 02:38:18;;;;;;;0.50;0.10;;;8.20;99.90;;;;;;4988479;28;20144;-85
2024/03/29 02:40:46;;;;;;;0.43;0.00;;;8.20;99.90;;;;;;4996657;28;20045;-86
2024/03/29 02:43:15;;;;;;;0.30;0.00;;;8.20;99.90;;;;;;5026744;28;20038;-85
2024/03/29 02:45:44;;;;;;;0.22;0.00;;;8.20;99.90;;;;;;5026832;28;20386;-87
2024/03/29 02:48:13;;;;;;;0.50;0.10;;;8.20;99.90;;;;;;5019849;28;20042;-84
2024/03/29 02:53:52;;;;;;;0.82;0.10;;;8.10;99.90;;;;;;5004284;28;20700;-87
2024/03/29 02:56:27;;;;;;;1.17;0.10;;;8.00;99.90;;;;;;4979898;28;20530;-87
2024/03/29 02:58:58;;;;;;;0.17;0.00;;;8.00;99.90;;;;;;4962758;28;20043;-88
2024/03/29 03:01:32;;;;;;;0.85;0.00;;;8.00;99.90;;;;;;4974376;28;20051;-86
2024/03/29 03:04:16;;;;;;;0.32;0.10;;;7.90;99.90;;;;;;4912259;29;20045;-86
2024/03/29 03:13:12;;;;;;;1.20;0.10;;;7.90;99.90;;;;;;5018175;28;20328;-80
2024/03/29 03:15:40;;;;;;;0.28;0.10;;;7.80;99.90;;;;;;4997213;28;20044;-80
2024/03/29 03:18:08;;;;;;;1.30;0.10;;;7.80;99.90;;;;;;4999015;28;20042;-80
2024/03/29 03:20:35;;;;;;;1.45;0.10;;;7.90;99.90;;;;;;5003126;28;20124;-80
2024/03/29 03:23:02;;;;;;;1.33;0.20;;;7.70;99.90;;;;;;5004506;28;20554;-82
2024/03/29 03:40:46;;;;;;;1.45;0.20;;;7.50;99.90;;;;;;4985162;28;20042;-80
2024/03/29 03:43:13;;;;;;;0.40;0.13;;;7.60;99.90;;;;;;5147880;23;20507;-80
2024/03/29 03:45:41;;;;;;;1.30;0.20;;;7.50;99.90;;;;;;5002990;28;20121;-80
2024/03/29 03:48:10;;;;;;;0.73;0.10;;;7.40;99.90;;;;;;5024450;28;20053;-79
2024/03/29 03:50:37;;;;;;;0.60;0.10;;;7.50;99.90;;;;;;5027696;28;20072;-78
2024/03/29 03:53:04;;;;;;;1.42;0.40;;;7.40;99.90;;;;;;4992229;28;20457;-77
2024/03/29 03:55:32;;;;;;;2.10;0.57;;;7.30;99.90;;;;;;4997983;28;20144;-80
2024/03/29 03:58:01;;;;;;;0.73;0.20;;;7.40;99.90;;;;;;5028158;28;20070;-79
2024/03/29 04:00:27;;;;;;;0.73;0.10;;;7.50;99.90;;;;;;4988751;28;20038;-77
2024/03/29 04:02:56;;;;;;;0.73;0.10;;;7.40;99.90;;;;;;5010763;28;20038;-79
2024/03/29 04:05:24;;;;;;;0.75;0.10;;;7.30;99.90;;;;;;5013140;28;20045;-79
2024/03/29 04:07:52;;;;;;;1.38;0.30;;;7.30;99.90;;;;;;4997955;28;20046;-78
2024/03/29 04:10:18;;;;;;;2.45;0.55;;;7.40;99.90;;;;;;5018340;28;20049;-80
2024/03/29 04:12:46;;;;;;;0.70;0.10;;;7.40;99.90;;;;;;5005334;28;20049;-78
2024/03/29 04:15:15;;;;;;;0.77;0.20;;;7.40;99.90;;;;;;5020679;28;20049;-78
2024/03/29 04:17:41;;;;;;;0.60;0.10;;;7.30;99.90;;;;;;5006329;28;20049;-80
2024/03/29 04:20:10;;;;;;;1.38;0.20;;;8.20;99.90;;;;;;5019902;28;20060;-80
2024/03/29 04:22:36;;;;;;;0.25;0.10;;;6.80;99.90;;;;;;5023089;28;20132;-82
2024/03/29 04:25:04;;;;;;;0.30;0.10;;;7.40;99.90;;;;;;5016252;28;20109;-80
2024/03/29 04:27:31;;;;;;;0.77;0.10;;;7.40;99.90;;;;;;5008339;28;20042;-80
2024/03/29 04:30:00;;;;;;;0.60;0.20;;;7.80;99.90;;;;;;5007638;28;20048;-80
2024/03/29 04:32:28;;;;;;;1.20;0.10;;;7.30;99.90;;;;;;5013124;28;20080;-82
2024/03/29 04:50:42;;;;;;;1.73;0.20;;;7.20;99.90;;;;;;5961798;23;20031;-82
2024/03/29 04:59:39;;;;;;;1.27;0.38;;;7.20;99.90;;;;;;3790804;23;20367;-86
2024/03/29 05:02:07;;;;;;;0.77;0.22;;;7.30;99.90;;;;;;4863205;29;20069;-84
2024/03/29 05:04:35;;;;;;;1.27;0.20;;;7.10;99.90;;;;;;4844834;29;20038;-84
2024/03/29 05:33:08;;;;;;;3.63;1.45;;;7.20;99.90;;;;;;5129481;23;20059;-85
2024/03/29 05:51:54;;;;;;;1.73;0.28;;;7.50;99.90;;;;;;5142813;23;20118;-86
2024/03/29 05:54:45;;;;;;;1.10;0.25;;;7.40;99.90;;;;;;4786989;29;20047;-83
2024/03/29 05:57:16;;;;;;;1.67;0.47;;;7.60;99.90;;;;;;4775666;30;20074;-84
2024/03/29 06:02:29;;;;;;;1.27;0.30;;;7.60;99.90;;;;;;4786255;30;20063;-86
2024/03/29 06:11:15;;;;;;;0.52;0.32;;;7.90;99.90;;;;;;4751800;30;20053;-85
2024/03/29 06:17:57;;;;;;;1.83;0.35;;;8.20;99.90;;;;;;4767613;30;20199;-86
2024/03/29 06:20:29;;;;;;;1.00;0.22;;;8.30;99.90;;;;;;4764322;30;20115;-87
2024/03/29 06:23:02;;;;;;;1.92;0.20;;;8.40;99.90;;;;;;4762814;30;20044;-85
2024/03/29 06:25:30;;;;;;;1.17;0.20;;;8.50;99.90;;;;;;4759190;30;20047;-87
2024/03/29 06:28:00;;;;;;;1.30;0.22;;;8.00;99.90;;;;;;4761097;30;20052;-84
2024/03/29 06:30:31;;;;;;;1.52;0.17;;;8.70;99.90;;;;;;4762822;30;20055;-86
2024/03/29 06:33:02;;;;;;;1.27;0.30;;;8.80;99.90;;;;;;4770723;30;20110;-86
2024/03/29 06:35:30;;;;;;;0.82;0.30;;;9.00;99.90;;;;;;4778722;30;20130;-85
2024/03/29 06:38:00;;;;;;;0.88;0.30;;;9.10;99.90;;;;;;4788222;30;20043;-85
2024/03/29 06:40:31;;;;;;;0.80;0.30;;;9.10;99.90;;;;;;4779454;29;20061;-86
2024/03/29 06:43:00;;;;;;;1.58;0.60;;;9.20;99.90;;;;;;4805356;29;20066;-86
2024/03/29 06:45:30;;;;;;;0.52;0.30;;;9.40;99.90;;;;;;4817456;29;20063;-87
2024/03/29 06:48:00;;;;;;;0.80;0.28;;;9.50;99.90;;;;;;4822531;29;20057;-85
2024/03/29 06:50:28;;;;;;;1.33;0.40;;;9.60;99.90;;;;;;4822269;29;20053;-86
2024/03/29 06:52:55;;;;;;;4.93;2.15;;;9.70;99.90;;;;;;4816338;29;20050;-88
2024/03/29 06:55:24;;;;;;;2.13;0.45;;;9.90;99.90;;;;;;4820305;29;20504;-86
2024/03/29 06:57:52;;;;;;;0.70;0.30;;;10.10;99.90;;;;;;4809008;29;20113;-86
2024/03/29 07:00:21;;;;;;;1.73;0.32;;;10.20;99.90;;;;;;4844491;29;20073;-87
2024/03/29 07:02:49;;;;;;;1.65;0.20;;;10.20;99.90;;;;;;4811419;29;20529;-87
2024/03/29 07:05:16;;;;;;;1.10;0.15;;;9.90;99.90;;;;;;4828000;29;20141;-87
2024/03/29 07:07:47;;;;;;;1.50;0.10;;;10.30;99.90;;;;;;4800885;29;20142;-89
2024/03/29 07:10:14;;;;;;;1.52;0.50;;;10.50;99.90;;;;;;4802576;29;20067;-88
2024/03/29 07:12:43;;;;;;;1.42;0.25;;;10.60;99.90;;;;;;4816597;29;20137;-89
2024/03/29 07:15:12;;;;;;;1.83;0.15;;;10.70;99.90;;;;;;4817805;29;20038;-90
2024/03/29 07:17:40;;;;;;;0.65;0.20;;;10.80;99.90;;;;;;4818229;29;20199;-90
2024/03/29 07:20:08;;;;;;;3.65;1.67;;;11.00;99.90;;;;;;4797515;29;20567;-91
2024/03/29 07:22:41;;;;;;;1.40;0.90;;;11.10;99.90;;;;;;4796657;29;20797;-89
2024/03/29 07:25:09;;;;;;;1.45;0.20;;;11.20;99.90;;;;;;4844247;29;20045;-90
2024/03/29 07:27:36;;;;;;;1.63;0.13;;;11.20;99.90;;;;;;4836918;29;20534;-89
2024/03/29 07:30:09;;;;;;;0.50;0.10;;;11.10;99.90;;;;;;4803255;29;20053;-89
2024/03/29 07:32:40;;;;;;;2.35;0.25;;;11.30;99.90;;;;;;4822872;29;20137;-90
2024/03/29 07:35:08;;;;;;;0.30;0.00;;;11.60;99.90;;;;;;4810186;29;20057;-88
2024/03/29 07:37:36;;;;;;;0.63;0.10;;;11.50;99.90;;;;;;4798519;29;20447;-89
2024/03/29 07:40:04;;;;;;;1.45;0.10;;;11.70;99.90;;;;;;4813823;29;20514;-89
2024/03/29 07:42:32;;;;;;;0.22;0.03;;;11.80;99.90;;;;;;4811167;29;20383;-89
2024/03/29 07:45:02;;;;;;;0.98;0.00;;;11.90;99.90;;;;;;4816974;29;20140;-91
2024/03/29 07:47:32;;;;;;;0.38;0.00;;;12.00;99.90;;;;;;4816345;29;20499;-89
2024/03/29 07:49:59;;;;;;;0.20;0.05;;;12.00;99.90;;;;;;4806332;29;20096;-87
2024/03/29 07:52:27;;;;;;;0.70;0.03;;;12.00;99.90;;;;;;4817631;29;20057;-88
2024/03/29 07:54:55;;;;;;;1.40;0.10;;;12.30;99.90;;;;;;4809562;29;20053;-89
2024/03/29 07:57:23;;;;;;;0.20;0.00;;;12.30;99.90;;;;;;4806876;29;20051;-89
2024/03/29 07:59:52;;;;;;;0.40;0.10;;;12.40;99.90;;;;;;4813016;29;20045;-89
2024/03/29 08:02:20;;;;;;;1.33;0.10;;;12.40;99.90;;;;;;4823534;29;20047;-89
2024/03/29 08:04:55;;;;;;;1.15;0.00;;;12.70;99.90;;;;;;4822957;29;20578;-87
2024/03/29 08:07:26;;;;;;;0.20;0.00;;;12.80;99.90;;;;;;4817621;29;20145;-87
2024/03/29 08:09:53;;;;;;;0.45;0.10;;;12.80;99.90;;;;;;4829462;29;20050;-88
2024/03/29 08:12:21;;;;;;;0.70;0.20;;;12.80;99.90;;;;;;4806317;29;20054;-87
2024/03/29 08:14:49;;;;;;;1.65;0.00;;;13.00;99.90;;;;;;4826940;29;20046;-89
2024/03/29 08:17:16;;;;;;;0.35;0.00;;;13.10;99.90;;;;;;4811923;29;20328;-90
2024/03/29 08:19:45;;;;;;;0.43;0.00;;;13.10;99.90;;;;;;4809182;29;20068;-89
2024/03/29 08:22:14;;;;;;;0.20;0.00;;;13.10;99.90;;;;;;4813796;29;20049;-90
2024/03/29 08:24:44;;;;;;;0.17;0.00;;;13.20;99.90;;;;;;4798648;29;20141;-88
2024/03/29 08:27:12;;;;;;;1.17;0.00;;;13.40;99.90;;;;;;4817967;29;20456;-87
2024/03/29 08:29:42;;;;;;;0.32;0.00;;;13.40;99.90;;;;;;4818546;29;20049;-89
2024/03/29 08:32:10;;;;;;;0.65;0.20;;;13.40;99.90;;;;;;4808169;29;20114;-89
2024/03/29 08:34:38;;;;;;;0.47;0.00;;;13.60;99.90;;;;;;4829402;29;20064;-89
2024/03/29 08:37:05;;;;;;;0.08;0.00;;;13.60;99.90;;;;;;4815223;29;20076;-87
2024/03/29 08:39:37;;;;;;;0.50;0.10;;;13.60;99.90;;;;;;4809583;29;20049;-91
2024/03/29 08:42:06;;;;;;;0.47;0.00;;;13.70;99.90;;;;;;4806273;29;20140;-89
2024/03/29 08:44:34;;;;;;;0.00;0.00;;;13.70;99.90;;;;;;4817587;29;20075;-87
2024/03/29 08:47:02;;;;;;;0.95;0.00;;;13.90;99.90;;;;;;4809874;29;20040;-87
2024/03/29 08:49:30;;;;;;;0.20;0.00;;;14.10;99.70;;;;;;4806267;29;20057;-86
2024/03/29 08:51:59;;;;;;;4.05;0.10;;;14.00;99.00;;;;;;4811914;29;20092;-87
2024/03/29 08:54:28;;;;;;;0.10;0.00;;;14.20;99.70;;;;;;4825607;29;20030;-89
2024/03/29 08:56:59;;;;;;;0.20;0.00;;;14.20;99.10;;;;;;4805262;29;20042;-88
2024/03/29 08:59:26;;;;;;;0.75;0.00;;;14.20;98.60;;;;;;4801407;29;20142;-89
2024/03/29 09:01:54;;;;;;;0.65;0.10;;;14.40;97.00;;;;;;4823909;29;20058;-88
2024/03/29 09:04:24;;;;;;;0.25;0.00;;;14.70;97.40;;;;;;4805907;29;20139;-87
2024/03/29 09:06:54;;;;;;;0.95;0.00;;;14.80;96.00;;;;;;4803429;29;20046;-87
2024/03/29 09:09:21;;;;;;;0.10;0.10;;;14.80;94.90;;;;;;4826986;29;20465;-86
2024/03/29 09:11:49;;;;;;;1.75;0.00;;;14.90;94.20;;;;;;4833935;29;20128;-91
2024/03/29 09:14:20;;;;;;;1.38;0.00;;;15.00;93.80;;;;;;4822768;29;20050;-89
2024/03/29 09:16:50;;;;;;;0.00;0.00;;;14.90;93.60;;;;;;4793148;29;20050;-89
2024/03/29 09:19:19;;;;;;;0.20;0.00;;;15.00;94.30;;;;;;4813686;29;20077;-87
2024/03/29 09:21:47;;;;;;;0.20;0.00;;;15.10;94.40;;;;;;4836289;29;20050;-89
2024/03/29 09:24:16;;;;;;;0.43;0.00;;;15.10;92.50;;;;;;4822683;29;20042;-87
2024/03/29 09:26:44;;;;;;;2.30;0.45;;;15.00;92.30;;;;;;4795750;29;20404;-88
2024/03/29 09:29:13;;;;;;;0.10;0.00;;;15.10;92.30;;;;;;4814838;29;20136;-87
2024/03/29 09:31:42;;;;;;;1516.00;765.15;;;15.30;92.30;;;;;;4812245;29;20085;-86
2024/03/29 09:34:09;;;;;;;0.30;0.00;;;15.20;91.80;;;;;;4821919;29;20057;-86
2024/03/29 09:36:37;;;;;;;0.75;0.00;;;15.40;91.90;;;;;;4795773;29;20219;-84
2024/03/29 09:39:05;;;;;;;2.53;0.00;;;15.60;91.60;;;;;;4802055;29;20051;-88
2024/03/29 09:41:37;;;;;;;0.00;0.00;;;15.70;91.90;;;;;;4820038;29;20049;-85
2024/03/29 09:44:07;;;;;;;0.25;0.00;;;15.40;92.10;;;;;;4818292;29;20049;-85
2024/03/29 09:46:36;;;;;;;0.75;0.30;;;15.70;92.50;;;;;;4826966;29;20047;-84
2024/03/29 09:49:07;;;;;;;1.13;0.00;;;15.80;92.00;;;;;;4820938;29;20042;-86
2024/03/29 09:51:35;;;;;;;0.10;0.00;;;16.30;92.10;;;;;;4809481;29;20165;-86
2024/03/29 09:54:11;;;;;;;0.20;0.00;;;16.10;90.50;;;;;;4795679;29;20038;-85
2024/03/29 09:56:40;;;;;;;0.10;0.00;;;16.10;90.80;;;;;;4824085;29;20054;-85
2024/03/29 09:59:08;;;;;;;0.30;0.00;;;16.10;90.40;;;;;;4802333;29;20050;-83
2024/03/29 10:01:36;;;;;;;1.20;0.10;;;16.30;91.20;;;;;;4819614;29;20041;-85
2024/03/29 10:04:08;;;;;;;0.43;0.00;;;16.50;90.80;;;;;;4799902;29;20094;-85
2024/03/29 10:06:37;;;;;;;1.08;0.00;;;16.60;90.90;;;;;;4813117;29;20076;-85
2024/03/29 10:09:04;;;;;;;4.38;1.75;;;16.60;91.20;;;;;;4818062;29;20139;-84
2024/03/29 10:11:32;;;;;;;8.65;3.80;;;16.50;91.60;;;;;;4802164;29;20042;-83
2024/03/29 10:14:00;;;;;;;1.83;0.38;;;16.40;91.20;;;;;;4809155;29;20066;-83
2024/03/29 10:16:30;;;;;;;0.45;0.00;;;16.20;90.70;;;;;;4811619;29;20958;-92
2024/03/29 10:18:59;;;;;;;0.90;0.00;;;16.00;90.50;;;;;;4815734;29;20137;-84
2024/03/29 10:21:29;;;;;;;0.43;0.00;;;16.20;91.40;;;;;;4826175;29;20121;-84
2024/03/29 10:23:56;;;;;;;0.30;0.00;;;16.20;91.20;;;;;;4816300;29;20037;-82
2024/03/29 10:26:25;;;;;;;0.90;0.32;;;16.10;91.70;;;;;;4794799;29;20054;-83
2024/03/29 10:28:55;;;;;;;0.85;0.00;;;16.10;91.00;;;;;;4815912;29;20514;-86
2024/03/29 10:31:23;;;;;;;1.58;0.00;;;16.00;91.50;;;;;;4809351;29;20049;-83
2024/03/29 10:33:52;;;;;;;1.13;0.00;;;16.00;91.30;;;;;;4830046;29;20188;-82
2024/03/29 10:36:20;;;;;;;1.58;0.00;;;16.10;91.90;;;;;;4817307;29;20046;-84
2024/03/29 10:38:49;;;;;;;1.10;0.10;;;16.20;92.20;;;;;;4800561;29;20144;-84
2024/03/29 10:41:18;;;;;;;1.02;0.00;;;16.30;91.80;;;;;;4824238;29;20500;-85
2024/03/29 10:43:48;;;;;;;0.38;0.10;;;16.80;91.20;;;;;;4820374;29;20042;-84
2024/03/29 10:46:17;;;;;;;0.63;0.00;;;16.50;91.50;;;;;;4825321;29;20042;-84
2024/03/29 10:48:47;;;;;;;0.50;0.10;;;16.50;91.00;;;;;;4803932;29;20051;-84
2024/03/29 10:51:15;;;;;;;1.05;0.10;;;16.50;91.50;;;;;;4823282;29;20163;-84
2024/03/29 10:53:44;;;;;;;1.40;0.35;;;16.50;91.60;;;;;;4811492;29;20525;-87
2024/03/29 10:56:16;;;;;;;1.65;0.28;;;16.50;92.10;;;;;;4829458;29;20038;-85
2024/03/29 10:58:51;;;;;;;2.17;0.10;;;16.50;92.40;;;;;;4782625;29;20057;-88
2024/03/29 11:01:20;;;;;;;1.08;0.10;;;16.80;92.50;;;;;;4827608;29;20072;-83
2024/03/29 11:03:55;;;;;;;2.67;0.93;;;17.20;92.70;;;;;;4824059;29;20830;-82
2024/03/29 11:06:27;;;;;;;1.50;0.10;;;17.60;92.30;;;;;;4825141;29;20499;-84
2024/03/29 11:08:58;;;;;;;1.30;0.10;;;17.50;91.90;;;;;;4828378;29;20687;-83
2024/03/29 11:11:30;;;;;;;3.58;0.10;;;17.50;92.20;;;;;;4824976;29;20524;-84
2024/03/29 11:14:04;;;;;;;1.55;0.10;;;17.50;92.20;;;;;;4823363;29;20086;-86
2024/03/29 11:16:32;;;;;;;1.00;0.20;;;17.30;92.70;;;;;;4816859;29;20855;-86
2024/03/29 11:19:03;;;;;;;1.33;0.10;;;17.30;93.20;;;;;;4801910;29;20047;-85
2024/03/29 11:21:32;;;;;;;1.75;0.20;;;17.30;93.60;;;;;;4815746;29;20141;-81
2024/03/29 11:24:04;;;;;;;1.35;0.17;;;17.60;93.60;;;;;;4790162;29;20049;-82
2024/03/29 11:26:34;;;;;;;3.47;0.38;;;17.90;94.00;;;;;;4827753;29;20046;-87
2024/03/29 11:29:03;;;;;;;2.58;0.60;;;18.20;94.00;;;;;;4805602;29;20403;-83
2024/03/29 11:31:32;;;;;;;4.10;0.20;;;18.10;94.10;;;;;;4798299;29;20042;-82
2024/03/29 11:34:00;;;;;;;3.20;0.20;;;18.10;93.30;;;;;;4813683;29;20041;-88
2024/03/29 11:36:31;;;;;;;2.92;0.40;;;18.20;93.10;;;;;;4809326;29;20049;-83
2024/03/29 11:38:59;;;;;;;2.58;0.30;;;18.30;93.10;;;;;;4797352;29;20105;-85
2024/03/29 11:41:29;;;;;;;3.15;0.20;;;18.50;93.50;;;;;;4809273;29;20046;-83
2024/03/29 11:43:59;;;;;;;2.85;0.10;;;18.50;93.80;;;;;;4801595;29;20050;-81
2024/03/29 11:46:33;;;;;;;4.13;0.20;;;18.60;93.40;;;;;;4821681;29;20046;-87
2024/03/29 11:49:01;;;;;;;3.10;0.43;;;18.60;93.20;;;;;;4827158;29;20079;-83
2024/03/29 11:51:30;;;;;;;4.53;0.30;;;18.50;93.20;;;;;;4817982;29;20069;-79
2024/03/29 11:53:58;;;;;;;6.35;0.80;;;18.30;93.80;;;;;;4814224;29;20485;-85
2024/03/29 11:56:26;;;;;;;2.83;0.10;;;18.20;93.50;;;;;;4805859;29;20062;-84
2024/03/29 11:58:59;;;;;;;3.53;0.30;;;18.20;93.60;;;;;;4819592;29;20038;-83
2024/03/29 12:01:29;;;;;;;3.80;0.20;;;18.20;93.90;;;;;;4810535;29;20046;-84
2024/03/29 12:03:57;;;;;;;3.15;0.10;;;18.20;94.10;;;;;;4817893;29;20073;-83
2024/03/29 12:06:26;;;;;;;2.88;0.20;;;18.20;94.20;;;;;;4812795;29;20038;-85
2024/03/29 12:08:55;;;;;;;4.25;0.20;;;18.30;94.10;;;;;;4821836;29;20138;-81
2024/03/29 12:11:23;;;;;;;2.55;0.20;;;18.60;94.10;;;;;;4829908;29;20074;-80
2024/03/29 12:13:52;;;;;;;5.63;0.20;;;18.60;93.50;;;;;;4813653;29;20106;-87
2024/03/29 12:16:20;;;;;;;5.85;0.32;;;18.60;93.70;;;;;;4804353;29;20115;-83
2024/03/29 12:18:48;;;;;;;2.30;0.30;;;18.60;94.50;;;;;;4811014;29;20046;-82
2024/03/29 12:21:16;;;;;;;3.90;0.22;;;18.90;94.50;;;;;;4814794;29;20762;-84
2024/03/29 12:23:49;;;;;;;3.47;0.25;;;19.00;93.90;;;;;;4796470;29;20057;-82
2024/03/29 12:26:22;;;;;;;3.25;0.20;;;19.10;94.20;;;;;;4805434;29;20487;-84
2024/03/29 12:28:51;;;;;;;5.32;0.20;;;19.00;93.80;;;;;;4804879;29;20157;-83
2024/03/29 12:31:19;;;;;;;4.38;0.63;;;18.80;94.10;;;;;;4800118;29;20893;-82
2024/03/29 12:33:54;;;;;;;3.35;0.20;;;18.70;94.70;;;;;;4816462;29;20058;-83
2024/03/29 12:36:26;;;;;;;3.53;0.20;;;18.50;94.20;;;;;;4820086;29;20057;-83
2024/03/29 12:38:58;;;;;;;2.72;0.10;;;18.40;93.90;;;;;;4820886;29;20046;-86
2024/03/29 12:41:26;;;;;;;4.18;0.20;;;18.30;93.80;;;;;;4810066;29;20093;-85
2024/03/29 12:43:54;;;;;;;5.90;0.20;;;18.20;94.60;;;;;;4800285;29;20052;-81
2024/03/29 12:46:23;;;;;;;6.32;0.30;;;18.20;94.60;;;;;;4796759;29;20042;-82
2024/03/29 12:49:00;;;;;;;8.65;1.17;;;18.10;95.20;;;;;;4814391;29;20042;-85
2024/03/29 12:51:29;;;;;;;3.65;0.20;;;18.00;95.00;;;;;;4805337;29;20149;-81
2024/03/29 12:54:03;;;;;;;2.28;0.30;;;18.00;95.30;;;;;;4806524;29;20077;-87
2024/03/29 12:56:31;;;;;;;3.58;0.70;;;17.90;94.70;;;;;;4821252;29;20070;-86
2024/03/29 12:58:59;;;;;;;5.85;0.50;;;17.80;95.10;;;;;;4804003;29;20035;-82
2024/03/29 13:01:27;;;;;;;3.85;0.47;;;17.80;95.00;;;;;;4814982;29;20046;-83
2024/03/29 13:03:55;;;;;;;4.68;0.32;;;17.80;95.10;;;;;;4809777;29;20043;-83
2024/03/29 13:06:24;;;;;;;7.05;0.50;;;18.00;95.10;;;;;;4805136;29;20126;-84
2024/03/29 13:08:53;;;;;;;3.35;0.80;;;18.30;94.70;;;;;;4817287;29;20046;-79
2024/03/29 13:11:21;;;;;;;3.03;0.20;;;18.60;94.80;;;;;;4805545;29;20655;-79
2024/03/29 13:13:49;;;;;;;3.85;0.20;;;18.70;94.10;;;;;;4803379;29;20141;-81
2024/03/29 13:16:17;;;;;;;3.20;0.25;;;18.70;94.20;;;;;;4818953;29;20491;-84
2024/03/29 13:18:45;;;;;;;6.15;0.50;;;18.60;94.20;;;;;;4816469;29;20164;-82
2024/03/29 13:21:13;;;;;;;4.47;0.30;;;18.50;94.60;;;;;;4807124;29;20050;-82
2024/03/29 13:23:42;;;;;;;3.42;0.20;;;18.50;95.10;;;;;;4804196;29;20042;-82
2024/03/29 13:26:10;;;;;;;3.40;0.30;;;18.40;95.10;;;;;;4810168;29;20140;-82
2024/03/29 13:28:38;;;;;;;4.55;0.73;;;18.30;95.40;;;;;;4802267;29;20526;-83
2024/03/29 13:31:06;;;;;;;2.78;0.50;;;18.40;95.10;;;;;;4819907;29;20141;-81
2024/03/29 13:33:34;;;;;;;5.35;1.02;;;18.40;95.30;;;;;;4808468;29;20065;-82
2024/03/29 13:36:03;;;;;;;4.10;0.45;;;18.50;95.70;;;;;;4810382;29;20140;-81
2024/03/29 13:38:30;;;;;;;3.08;0.20;;;18.80;95.60;;;;;;4821074;29;20094;-82
2024/03/29 13:41:00;;;;;;;4.25;0.40;;;19.10;95.00;;;;;;4831390;29;20041;-83
2024/03/29 13:43:28;;;;;;;3.08;0.60;;;19.10;94.30;;;;;;4801120;29;20038;-82
2024/03/29 13:45:56;;;;;;;2.25;0.30;;;19.00;94.70;;;;;;4816295;29;20574;-86
2024/03/29 13:48:25;;;;;;;2.42;0.30;;;19.10;94.60;;;;;;4799201;29;20081;-82
2024/03/29 13:50:52;;;;;;;6.68;0.45;;;19.10;95.20;;;;;;4814729;29;20046;-83
2024/03/29 13:53:20;;;;;;;7.35;0.68;;;19.00;94.40;;;;;;4802301;29;20058;-81
2024/03/29 13:55:48;;;;;;;3.42;0.30;;;18.90;94.20;;;;;;4803796;29;20042;-81
2024/03/29 13:58:18;;;;;;;4.80;0.20;;;18.80;95.00;;;;;;4794153;29;20141;-84
2024/03/29 14:00:46;;;;;;;5.65;0.90;;;18.70;95.40;;;;;;4822803;29;20419;-82
2024/03/29 14:03:14;;;;;;;3.33;0.30;;;18.60;95.30;;;;;;4820376;29;20140;-83
2024/03/29 14:05:43;;;;;;;3.08;0.20;;;18.60;95.20;;;;;;4812940;29;20137;-81
2024/03/29 14:08:11;;;;;;;4.72;0.25;;;18.60;95.20;;;;;;4801983;29;20835;-80
2024/03/29 14:10:39;;;;;;;3.35;0.43;;;18.60;95.50;;;;;;4800337;29;20070;-80
2024/03/29 14:13:09;;;;;;;8.50;0.80;;;18.60;95.70;;;;;;4804856;29;20078;-82
2024/03/29 14:15:38;;;;;;;8.00;0.45;;;18.60;95.70;;;;;;4785382;29;20046;-82
2024/03/29 14:18:06;;;;;;;6.10;0.20;;;18.60;95.60;;;;;;4801482;29;20084;-82
2024/03/29 14:20:34;;;;;;;4.25;0.30;;;18.50;95.80;;;;;;4818918;29;20042;-80
2024/03/29 14:23:06;;;;;;;9.65;0.55;;;18.50;95.70;;;;;;4819579;29;20053;-82
2024/03/29 14:25:33;;;;;;;7.30;0.88;;;18.50;95.90;;;;;;4822454;29;20388;-83
2024/03/29 14:28:03;;;;;;;6.60;0.82;;;18.50;95.90;;;;;;4802009;29;20101;-82
2024/03/29 14:30:31;;;;;;;5.47;0.30;;;18.50;95.80;;;;;;4796264;29;20134;-82
2024/03/29 14:33:06;;;;;;;3.90;0.52;;;18.60;95.70;;;;;;4806783;29;20045;-81
2024/03/29 14:35:36;;;;;;;3.10;0.32;;;18.60;95.80;;;;;;4812370;29;20064;-83
2024/03/29 14:38:04;;;;;;;3.80;0.70;;;18.60;96.10;;;;;;4818831;29;20122;-81
2024/03/29 14:40:32;;;;;;;2.35;0.20;;;18.60;95.80;;;;;;4807980;29;20111;-83
2024/03/29 14:43:00;;;;;;;2.80;0.63;;;18.70;95.50;;;;;;4806046;29;20034;-82
2024/03/29 14:45:30;;;;;;;3.35;0.80;;;18.60;95.80;;;;;;4804240;29;20058;-86
2024/03/29 14:47:57;;;;;;;4.63;0.30;;;18.60;95.60;;;;;;4824303;29;20064;-80
2024/03/29 14:50:27;;;;;;;2.75;0.30;;;18.50;95.80;;;;;;4806848;29;20145;-82
2024/03/29 14:52:55;;;;;;;4.93;0.40;;;18.50;95.60;;;;;;4807258;29;20038;-82
2024/03/29 14:55:23;;;;;;;1.83;0.38;;;18.50;95.80;;;;;;4790744;29;20590;-82
2024/03/29 14:57:52;;;;;;;6.93;1.10;;;18.50;96.00;;;;;;4814976;29;20495;-82
2024/03/29 15:00:22;;;;;;;4.22;0.38;;;18.50;96.20;;;;;;4802726;29;20049;-81
2024/03/29 15:02:50;;;;;;;6.68;0.93;;;18.40;96.30;;;;;;4803505;29;20042;-83
2024/03/29 15:05:18;;;;;;;5.82;0.63;;;18.50;96.20;;;;;;4799001;29;20053;-82
2024/03/29 15:07:47;;;;;;;5.03;0.30;;;18.50;96.50;;;;;;4798353;29;20137;-82
2024/03/29 15:10:15;;;;;;;4.13;0.40;;;18.70;96.20;;;;;;4814637;29;20045;-81
2024/03/29 15:12:43;;;;;;;5.63;0.20;;;19.00;96.20;;;;;;4819752;29;20042;-83
2024/03/29 15:15:11;;;;;;;7.00;0.40;;;19.10;95.30;;;;;;4816898;29;20242;-82
2024/03/29 15:17:39;;;;;;;5.35;0.68;;;19.00;95.30;;;;;;4819942;29;20654;-83
2024/03/29 15:20:09;;;;;;;6.85;0.52;;;19.00;95.30;;;;;;4823100;29;20041;-85
2024/03/29 15:22:37;;;;;;;7.30;0.95;;;19.10;95.60;;;;;;4798667;29;20046;-83
2024/03/29 15:25:08;;;;;;;5.68;1.70;;;19.10;95.20;;;;;;4800005;29;20066;-82
2024/03/29 15:30:18;;;;;;;4.78;0.45;;;19.10;95.10;;;;;;4815543;29;20479;-82
2024/03/29 15:32:46;;;;;;;5.85;0.40;;;18.90;94.60;;;;;;4826999;29;20049;-82
2024/03/29 15:35:14;;;;;;;4.25;0.52;;;18.80;95.10;;;;;;4807830;29;20046;-82
2024/03/29 15:37:42;;;;;;;4.28;0.55;;;18.90;95.10;;;;;;4803374;29;20045;-82
2024/03/29 15:40:12;;;;;;;5.30;0.50;;;19.00;95.50;;;;;;4792656;29;20041;-82
2024/03/29 15:42:41;;;;;;;3.25;0.30;;;19.00;95.50;;;;;;4811887;29;20048;-82
2024/03/29 15:45:10;;;;;;;8.35;1.05;;;19.00;95.40;;;;;;4823588;29;20042;-83
2024/03/29 15:47:38;;;;;;;8.55;0.32;;;18.80;95.70;;;;;;4798070;29;20281;-82
2024/03/29 15:50:06;;;;;;;6.03;0.77;;;18.70;95.90;;;;;;4804830;29;20042;-81
2024/03/29 15:52:34;;;;;;;4.35;0.30;;;18.70;95.90;;;;;;4822668;29;20042;-82
2024/03/29 15:55:02;;;;;;;3.38;0.38;;;18.60;96.00;;;;;;4809418;29;20056;-81
2024/03/29 15:57:31;;;;;;;5.57;0.60;;;18.50;96.40;;;;;;4820366;29;20046;-82
2024/03/29 15:59:59;;;;;;;2.75;0.40;;;18.60;96.40;;;;;;4822043;29;20037;-82
2024/03/29 16:02:27;;;;;;;3.35;0.30;;;18.50;96.70;;;;;;4821574;29;20037;-82
2024/03/29 16:04:55;;;;;;;4.93;0.95;;;18.50;97.10;;;;;;4813692;29;20046;-82
2024/03/29 16:07:23;;;;;;;5.47;0.60;;;18.30;97.70;;;;;;4810386;29;20045;-83
2024/03/29 16:09:51;;;;;;;5.78;0.40;;;18.20;98.00;;;;;;4802476;29;20150;-81
2024/03/29 16:12:19;;;;;;;5.47;1.02;;;18.20;98.20;;;;;;4817233;29;20042;-85
2024/03/29 16:14:48;;;;;;;7.03;1.27;;;18.20;98.30;;;;;;4798572;29;20046;-82
2024/03/29 16:17:15;;;;;;;6.60;1.27;;;18.10;99.10;;;;;;4814966;29;20045;-82
2024/03/29 16:19:42;;;;;;;11.30;1.80;;;18.10;99.00;;;;;;4820483;29;20773;-83
2024/03/29 16:22:10;;;;;;;12.85;4.35;;;18.00;99.30;;;;;;4820527;29;20037;-82
2024/03/29 16:24:37;;;;;;;13.85;4.50;;;17.90;99.70;;;;;;4823507;29;20034;-83
2024/03/29 16:27:05;;;;;;;5.40;1.30;;;17.80;99.70;;;;;;4825571;29;20128;-83
2024/03/29 16:29:31;;;;;;;6.68;1.30;;;17.80;99.90;;;;;;4829044;29;20552;-82
2024/03/29 16:32:03;;;;;;;6.80;1.92;;;17.70;99.90;;;;;;4797254;29;20070;-83
2024/03/29 16:34:30;;;;;;;2.92;0.60;;;17.60;99.90;;;;;;4810291;29;20535;-83